sensor_id;sensor_type;location;lat;lon;timestamp;P1;durP1;ratioP1;P2;durP2;ratioP2
21825;SDS011;11075;47.944;11.776;2022-10-15T00:03:52;3.20;;;1.13;;
21825;SDS011;11075;47.944;11.776;2022-10-15T00:06:19;1.27;;;0.90;;
21825;SDS011;11075;47.944;11.776;2022-10-15T00:08:46;3.13;;;1.17;;
21825;SDS011;11075;47.944;11.776;2022-10-15T00:11:15;2.37;;;1.30;;
21825;SDS011;11075;47.944;11.776;2022-10-15T00:13:48;3.23;;;1.20;;
21825;SDS011;11075;47.944;11.776;2022-10-15T00:16:17;2.97;;;1.47;;
21825;SDS011;11075;47.944;11.776;2022-10-15T00:18:45;2.30;;;1.10;;
21825;SDS011;11075;47.944;11.776;2022-10-15T00:21:14;5.60;;;1.03;;
21825;SDS011;11075;47.944;11.776;2022-10-15T00:23:42;1.83;;;1.00;;
21825;SDS011;11075;47.944;11.776;2022-10-15T00:26:13;2.53;;;1.08;;
21825;SDS011;11075;47.944;11.776;2022-10-15T00:28:43;1.20;;;1.10;;
21825;SDS011;11075;47.944;11.776;2022-10-15T00:31:11;9.00;;;1.30;;
21825;SDS011;11075;47.944;11.776;2022-10-15T00:36:14;3.30;;;1.00;;
21825;SDS011;11075;47.944;11.776;2022-10-15T00:38:43;2.93;;;0.80;;
21825;SDS011;11075;47.944;11.776;2022-10-15T00:41:21;1.27;;;1.03;;
21825;SDS011;11075;47.944;11.776;2022-10-15T00:46:31;1.57;;;1.00;;
21825;SDS011;11075;47.944;11.776;2022-10-15T00:51:35;3.33;;;1.07;;
21825;SDS011;11075;47.944;11.776;2022-10-15T00:54:07;1.17;;;0.90;;
21825;SDS011;11075;47.944;11.776;2022-10-15T00:56:35;0.77;;;0.77;;
21825;SDS011;11075;47.944;11.776;2022-10-15T00:59:04;3.37;;;1.50;;
21825;SDS011;11075;47.944;11.776;2022-10-15T01:01:33;2.38;;;1.00;;
21825;SDS011;11075;47.944;11.776;2022-10-15T01:04:00;2.13;;;1.10;;
21825;SDS011;11075;47.944;11.776;2022-10-15T01:06:29;1.47;;;1.00;;
21825;SDS011;11075;47.944;11.776;2022-10-15T01:08:57;2.17;;;1.00;;
21825;SDS011;11075;47.944;11.776;2022-10-15T01:11:41;1.40;;;1.30;;
21825;SDS011;11075;47.944;11.776;2022-10-15T01:17:06;1.80;;;1.30;;
21825;SDS011;11075;47.944;11.776;2022-10-15T01:22:29;1.90;;;1.10;;
21825;SDS011;11075;47.944;11.776;2022-10-15T01:25:03;2.03;;;1.03;;
21825;SDS011;11075;47.944;11.776;2022-10-15T01:27:57;3.97;;;1.20;;
21825;SDS011;11075;47.944;11.776;2022-10-15T01:30:44;2.60;;;0.90;;
21825;SDS011;11075;47.944;11.776;2022-10-15T01:33:35;1.20;;;1.10;;
21825;SDS011;11075;47.944;11.776;2022-10-15T01:39:00;3.07;;;1.10;;
21825;SDS011;11075;47.944;11.776;2022-10-15T01:41:46;1.23;;;1.13;;
21825;SDS011;11075;47.944;11.776;2022-10-15T01:47:45;2.07;;;1.10;;
21825;SDS011;11075;47.944;11.776;2022-10-15T01:50:25;1.43;;;1.10;;
21825;SDS011;11075;47.944;11.776;2022-10-15T01:52:56;1.13;;;1.03;;
21825;SDS011;11075;47.944;11.776;2022-10-15T01:55:26;3.90;;;1.00;;
21825;SDS011;11075;47.944;11.776;2022-10-15T01:57:58;4.67;;;1.23;;
21825;SDS011;11075;47.944;11.776;2022-10-15T02:00:26;3.43;;;1.50;;
21825;SDS011;11075;47.944;11.776;2022-10-15T02:02:57;2.07;;;1.27;;
21825;SDS011;11075;47.944;11.776;2022-10-15T02:05:34;6.13;;;1.13;;
21825;SDS011;11075;47.944;11.776;2022-10-15T02:13:15;3.10;;;1.00;;
21825;SDS011;11075;47.944;11.776;2022-10-15T02:18:32;1.30;;;1.00;;
21825;SDS011;11075;47.944;11.776;2022-10-15T02:21:05;1.93;;;1.00;;
21825;SDS011;11075;47.944;11.776;2022-10-15T02:23:50;1.27;;;0.80;;
21825;SDS011;11075;47.944;11.776;2022-10-15T02:26:39;3.67;;;1.00;;
21825;SDS011;11075;47.944;11.776;2022-10-15T02:29:09;1.87;;;1.00;;
21825;SDS011;11075;47.944;11.776;2022-10-15T02:31:40;2.47;;;1.00;;
21825;SDS011;11075;47.944;11.776;2022-10-15T02:34:10;1.27;;;0.90;;
21825;SDS011;11075;47.944;11.776;2022-10-15T02:36:42;3.77;;;1.17;;
21825;SDS011;11075;47.944;11.776;2022-10-15T02:39:10;2.17;;;1.13;;
21825;SDS011;11075;47.944;11.776;2022-10-15T02:41:39;1.80;;;0.90;;
21825;SDS011;11075;47.944;11.776;2022-10-15T02:44:10;2.10;;;0.80;;
21825;SDS011;11075;47.944;11.776;2022-10-15T02:46:37;1.00;;;0.90;;
21825;SDS011;11075;47.944;11.776;2022-10-15T02:49:04;1.20;;;0.77;;
21825;SDS011;11075;47.944;11.776;2022-10-15T02:51:32;2.80;;;1.00;;
21825;SDS011;11075;47.944;11.776;2022-10-15T02:54:01;1.97;;;1.00;;
21825;SDS011;11075;47.944;11.776;2022-10-15T02:56:29;0.87;;;0.80;;
21825;SDS011;11075;47.944;11.776;2022-10-15T02:58:57;3.13;;;1.00;;
21825;SDS011;11075;47.944;11.776;2022-10-15T03:01:24;1.73;;;0.70;;
21825;SDS011;11075;47.944;11.776;2022-10-15T03:03:51;2.13;;;0.73;;
21825;SDS011;11075;47.944;11.776;2022-10-15T03:06:18;4.00;;;0.80;;
21825;SDS011;11075;47.944;11.776;2022-10-15T03:08:46;1.43;;;0.60;;
21825;SDS011;11075;47.944;11.776;2022-10-15T03:11:13;2.20;;;0.90;;
21825;SDS011;11075;47.944;11.776;2022-10-15T03:13:40;3.90;;;0.80;;
21825;SDS011;11075;47.944;11.776;2022-10-15T03:16:08;4.13;;;0.63;;
21825;SDS011;11075;47.944;11.776;2022-10-15T03:18:38;0.90;;;0.80;;
21825;SDS011;11075;47.944;11.776;2022-10-15T03:21:08;1.17;;;0.60;;
21825;SDS011;11075;47.944;11.776;2022-10-15T03:23:35;3.20;;;0.70;;
21825;SDS011;11075;47.944;11.776;2022-10-15T03:26:07;0.60;;;0.60;;
21825;SDS011;11075;47.944;11.776;2022-10-15T03:28:34;1.90;;;0.80;;
21825;SDS011;11075;47.944;11.776;2022-10-15T03:31:02;1.17;;;0.60;;
21825;SDS011;11075;47.944;11.776;2022-10-15T03:33:28;1.27;;;0.73;;
21825;SDS011;11075;47.944;11.776;2022-10-15T03:35:56;0.70;;;0.60;;
21825;SDS011;11075;47.944;11.776;2022-10-15T03:38:23;0.60;;;0.50;;
21825;SDS011;11075;47.944;11.776;2022-10-15T03:40:51;3.20;;;0.50;;
21825;SDS011;11075;47.944;11.776;2022-10-15T03:43:31;1.53;;;0.70;;
21825;SDS011;11075;47.944;11.776;2022-10-15T03:46:03;3.23;;;1.00;;
21825;SDS011;11075;47.944;11.776;2022-10-15T03:48:35;0.50;;;0.50;;
21825;SDS011;11075;47.944;11.776;2022-10-15T03:51:02;0.80;;;0.70;;
21825;SDS011;11075;47.944;11.776;2022-10-15T03:53:29;2.10;;;0.70;;
21825;SDS011;11075;47.944;11.776;2022-10-15T03:56:01;0.70;;;0.60;;
21825;SDS011;11075;47.944;11.776;2022-10-15T03:58:35;3.23;;;0.60;;
21825;SDS011;11075;47.944;11.776;2022-10-15T04:01:08;1.00;;;0.70;;
21825;SDS011;11075;47.944;11.776;2022-10-15T04:03:36;3.13;;;0.50;;
21825;SDS011;11075;47.944;11.776;2022-10-15T04:06:03;1.90;;;0.60;;
21825;SDS011;11075;47.944;11.776;2022-10-15T04:08:32;1.23;;;0.63;;
21825;SDS011;11075;47.944;11.776;2022-10-15T04:11:05;0.70;;;0.50;;
21825;SDS011;11075;47.944;11.776;2022-10-15T04:13:35;0.73;;;0.50;;
21825;SDS011;11075;47.944;11.776;2022-10-15T04:16:05;0.90;;;0.63;;
21825;SDS011;11075;47.944;11.776;2022-10-15T04:18:32;0.77;;;0.67;;
21825;SDS011;11075;47.944;11.776;2022-10-15T04:21:00;1.00;;;0.60;;
21825;SDS011;11075;47.944;11.776;2022-10-15T04:23:31;0.83;;;0.63;;
21825;SDS011;11075;47.944;11.776;2022-10-15T04:26:18;2.07;;;0.50;;
21825;SDS011;11075;47.944;11.776;2022-10-15T04:28:46;0.53;;;0.40;;
21825;SDS011;11075;47.944;11.776;2022-10-15T04:31:14;1.30;;;0.60;;
21825;SDS011;11075;47.944;11.776;2022-10-15T04:33:41;1.03;;;0.60;;
21825;SDS011;11075;47.944;11.776;2022-10-15T04:36:11;1.37;;;0.30;;
21825;SDS011;11075;47.944;11.776;2022-10-15T04:38:49;2.63;;;0.40;;
21825;SDS011;11075;47.944;11.776;2022-10-15T04:41:27;0.43;;;0.30;;
21825;SDS011;11075;47.944;11.776;2022-10-15T04:44:03;0.40;;;0.40;;
21825;SDS011;11075;47.944;11.776;2022-10-15T04:46:31;2.43;;;0.40;;
21825;SDS011;11075;47.944;11.776;2022-10-15T04:49:05;0.47;;;0.40;;
21825;SDS011;11075;47.944;11.776;2022-10-15T04:51:32;2.10;;;0.40;;
21825;SDS011;11075;47.944;11.776;2022-10-15T04:54:10;1.23;;;0.40;;
21825;SDS011;11075;47.944;11.776;2022-10-15T04:56:52;2.20;;;0.30;;
21825;SDS011;11075;47.944;11.776;2022-10-15T04:59:19;1.07;;;0.50;;
21825;SDS011;11075;47.944;11.776;2022-10-15T05:02:15;0.30;;;0.30;;
21825;SDS011;11075;47.944;11.776;2022-10-15T05:04:46;0.70;;;0.33;;
21825;SDS011;11075;47.944;11.776;2022-10-15T05:07:14;0.30;;;0.30;;
21825;SDS011;11075;47.944;11.776;2022-10-15T05:09:42;1.33;;;0.27;;
21825;SDS011;11075;47.944;11.776;2022-10-15T05:12:12;0.40;;;0.23;;
21825;SDS011;11075;47.944;11.776;2022-10-15T05:14:39;0.32;;;0.30;;
21825;SDS011;11075;47.944;11.776;2022-10-15T05:17:18;2.57;;;0.40;;
21825;SDS011;11075;47.944;11.776;2022-10-15T05:19:44;0.63;;;0.30;;
21825;SDS011;11075;47.944;11.776;2022-10-15T05:22:18;1.70;;;0.23;;
21825;SDS011;11075;47.944;11.776;2022-10-15T05:24:52;2.28;;;0.22;;
21825;SDS011;11075;47.944;11.776;2022-10-15T05:27:33;0.30;;;0.20;;
21825;SDS011;11075;47.944;11.776;2022-10-15T05:30:03;0.70;;;0.40;;
21825;SDS011;11075;47.944;11.776;2022-10-15T05:32:44;1.23;;;0.47;;
21825;SDS011;11075;47.944;11.776;2022-10-15T05:35:15;1.33;;;0.50;;
21825;SDS011;11075;47.944;11.776;2022-10-15T05:38:02;1.50;;;0.50;;
21825;SDS011;11075;47.944;11.776;2022-10-15T05:40:30;0.73;;;0.40;;
21825;SDS011;11075;47.944;11.776;2022-10-15T05:43:03;0.40;;;0.40;;
21825;SDS011;11075;47.944;11.776;2022-10-15T05:45:30;0.83;;;0.40;;
21825;SDS011;11075;47.944;11.776;2022-10-15T05:48:02;3.87;;;0.70;;
21825;SDS011;11075;47.944;11.776;2022-10-15T05:50:29;1.43;;;0.40;;
21825;SDS011;11075;47.944;11.776;2022-10-15T05:52:57;1.60;;;0.30;;
21825;SDS011;11075;47.944;11.776;2022-10-15T05:55:33;1.05;;;0.50;;
21825;SDS011;11075;47.944;11.776;2022-10-15T05:58:01;1.30;;;0.40;;
21825;SDS011;11075;47.944;11.776;2022-10-15T06:00:30;1.02;;;0.40;;
21825;SDS011;11075;47.944;11.776;2022-10-15T06:02:57;0.30;;;0.30;;
21825;SDS011;11075;47.944;11.776;2022-10-15T06:05:24;0.33;;;0.30;;
21825;SDS011;11075;47.944;11.776;2022-10-15T06:07:51;0.63;;;0.50;;
21825;SDS011;11075;47.944;11.776;2022-10-15T06:10:18;0.83;;;0.60;;
21825;SDS011;11075;47.944;11.776;2022-10-15T06:12:49;2.30;;;0.40;;
21825;SDS011;11075;47.944;11.776;2022-10-15T06:15:16;0.80;;;0.40;;
21825;SDS011;11075;47.944;11.776;2022-10-15T06:17:44;0.75;;;0.40;;
21825;SDS011;11075;47.944;11.776;2022-10-15T06:20:11;0.30;;;0.30;;
21825;SDS011;11075;47.944;11.776;2022-10-15T06:22:38;0.73;;;0.47;;
21825;SDS011;11075;47.944;11.776;2022-10-15T06:25:05;0.70;;;0.40;;
21825;SDS011;11075;47.944;11.776;2022-10-15T06:27:34;4.57;;;0.50;;
21825;SDS011;11075;47.944;11.776;2022-10-15T06:30:01;2.33;;;0.50;;
21825;SDS011;11075;47.944;11.776;2022-10-15T06:32:29;0.30;;;0.30;;
21825;SDS011;11075;47.944;11.776;2022-10-15T06:34:55;2.42;;;0.60;;
21825;SDS011;11075;47.944;11.776;2022-10-15T06:37:22;2.90;;;0.63;;
21825;SDS011;11075;47.944;11.776;2022-10-15T06:39:52;0.30;;;0.30;;
21825;SDS011;11075;47.944;11.776;2022-10-15T06:42:19;0.80;;;0.60;;
21825;SDS011;11075;47.944;11.776;2022-10-15T06:44:46;0.93;;;0.50;;
21825;SDS011;11075;47.944;11.776;2022-10-15T06:47:15;3.10;;;0.40;;
21825;SDS011;11075;47.944;11.776;2022-10-15T06:49:45;3.33;;;0.40;;
21825;SDS011;11075;47.944;11.776;2022-10-15T06:52:13;0.70;;;0.38;;
21825;SDS011;11075;47.944;11.776;2022-10-15T06:54:39;1.05;;;0.35;;
21825;SDS011;11075;47.944;11.776;2022-10-15T06:57:09;1.60;;;0.55;;
21825;SDS011;11075;47.944;11.776;2022-10-15T06:59:35;0.30;;;0.30;;
21825;SDS011;11075;47.944;11.776;2022-10-15T07:02:09;2.13;;;0.30;;
21825;SDS011;11075;47.944;11.776;2022-10-15T07:04:36;1.08;;;0.40;;
21825;SDS011;11075;47.944;11.776;2022-10-15T07:07:03;0.50;;;0.43;;
21825;SDS011;11075;47.944;11.776;2022-10-15T07:09:31;0.30;;;0.30;;
21825;SDS011;11075;47.944;11.776;2022-10-15T07:12:00;1.05;;;0.35;;
21825;SDS011;11075;47.944;11.776;2022-10-15T07:14:27;0.77;;;0.20;;
21825;SDS011;11075;47.944;11.776;2022-10-15T07:16:54;3.53;;;0.40;;
21825;SDS011;11075;47.944;11.776;2022-10-15T07:19:21;9.57;;;0.70;;
21825;SDS011;11075;47.944;11.776;2022-10-15T07:21:48;0.25;;;0.25;;
21825;SDS011;11075;47.944;11.776;2022-10-15T07:24:16;3.03;;;0.38;;
21825;SDS011;11075;47.944;11.776;2022-10-15T07:26:45;0.20;;;0.20;;
21825;SDS011;11075;47.944;11.776;2022-10-15T07:29:12;0.30;;;0.30;;
21825;SDS011;11075;47.944;11.776;2022-10-15T07:31:39;2.55;;;0.40;;
21825;SDS011;11075;47.944;11.776;2022-10-15T07:34:06;0.52;;;0.40;;
21825;SDS011;11075;47.944;11.776;2022-10-15T07:36:33;1.42;;;0.30;;
21825;SDS011;11075;47.944;11.776;2022-10-15T07:39:00;0.90;;;0.32;;
21825;SDS011;11075;47.944;11.776;2022-10-15T07:41:27;0.63;;;0.40;;
21825;SDS011;11075;47.944;11.776;2022-10-15T07:43:55;0.65;;;0.30;;
21825;SDS011;11075;47.944;11.776;2022-10-15T07:46:22;0.68;;;0.50;;
21825;SDS011;11075;47.944;11.776;2022-10-15T07:48:53;0.60;;;0.60;;
21825;SDS011;11075;47.944;11.776;2022-10-15T07:51:20;0.32;;;0.30;;
21825;SDS011;11075;47.944;11.776;2022-10-15T07:53:47;0.50;;;0.28;;
21825;SDS011;11075;47.944;11.776;2022-10-15T07:56:15;0.22;;;0.22;;
21825;SDS011;11075;47.944;11.776;2022-10-15T07:58:42;1.95;;;0.40;;
21825;SDS011;11075;47.944;11.776;2022-10-15T08:01:17;0.93;;;0.30;;
21825;SDS011;11075;47.944;11.776;2022-10-15T08:03:47;3.20;;;0.40;;
21825;SDS011;11075;47.944;11.776;2022-10-15T08:06:14;2.38;;;0.35;;
21825;SDS011;11075;47.944;11.776;2022-10-15T08:08:41;2.95;;;0.40;;
21825;SDS011;11075;47.944;11.776;2022-10-15T08:11:09;1.30;;;0.52;;
21825;SDS011;11075;47.944;11.776;2022-10-15T08:13:38;1.65;;;0.20;;
21825;SDS011;11075;47.944;11.776;2022-10-15T08:16:08;0.77;;;0.30;;
21825;SDS011;11075;47.944;11.776;2022-10-15T08:18:36;0.63;;;0.30;;
21825;SDS011;11075;47.944;11.776;2022-10-15T08:21:04;0.63;;;0.35;;
21825;SDS011;11075;47.944;11.776;2022-10-15T08:23:33;1.42;;;0.45;;
21825;SDS011;11075;47.944;11.776;2022-10-15T08:26:02;1.38;;;0.30;;
21825;SDS011;11075;47.944;11.776;2022-10-15T08:28:31;0.90;;;0.25;;
21825;SDS011;11075;47.944;11.776;2022-10-15T08:31:00;1.73;;;0.40;;
21825;SDS011;11075;47.944;11.776;2022-10-15T08:33:36;2.45;;;0.38;;
21825;SDS011;11075;47.944;11.776;2022-10-15T08:36:04;2.08;;;0.40;;
21825;SDS011;11075;47.944;11.776;2022-10-15T08:38:32;2.13;;;0.45;;
21825;SDS011;11075;47.944;11.776;2022-10-15T08:41:00;0.95;;;0.50;;
21825;SDS011;11075;47.944;11.776;2022-10-15T08:43:41;1.63;;;0.30;;
21825;SDS011;11075;47.944;11.776;2022-10-15T08:46:17;1.70;;;0.40;;
21825;SDS011;11075;47.944;11.776;2022-10-15T08:48:53;0.50;;;0.32;;
21825;SDS011;11075;47.944;11.776;2022-10-15T08:51:23;1.85;;;0.40;;
21825;SDS011;11075;47.944;11.776;2022-10-15T08:53:58;1.75;;;0.50;;
21825;SDS011;11075;47.944;11.776;2022-10-15T08:59:09;2.22;;;0.40;;
21825;SDS011;11075;47.944;11.776;2022-10-15T09:02:01;0.65;;;0.40;;
21825;SDS011;11075;47.944;11.776;2022-10-15T09:07:30;0.65;;;0.45;;
21825;SDS011;11075;47.944;11.776;2022-10-15T09:12:52;0.88;;;0.40;;
21825;SDS011;11075;47.944;11.776;2022-10-15T09:15:27;2.00;;;0.30;;
21825;SDS011;11075;47.944;11.776;2022-10-15T09:17:59;0.88;;;0.73;;
21825;SDS011;11075;47.944;11.776;2022-10-15T09:20:32;1.75;;;0.40;;
21825;SDS011;11075;47.944;11.776;2022-10-15T09:23:02;0.40;;;0.30;;
21825;SDS011;11075;47.944;11.776;2022-10-15T09:25:39;0.45;;;0.28;;
21825;SDS011;11075;47.944;11.776;2022-10-15T09:28:13;2.33;;;0.32;;
21825;SDS011;11075;47.944;11.776;2022-10-15T09:30:53;0.75;;;0.35;;
21825;SDS011;11075;47.944;11.776;2022-10-15T09:33:34;0.30;;;0.20;;
21825;SDS011;11075;47.944;11.776;2022-10-15T09:41:38;0.30;;;0.30;;
21825;SDS011;11075;47.944;11.776;2022-10-15T09:44:11;2.97;;;0.25;;
21825;SDS011;11075;47.944;11.776;2022-10-15T09:46:47;0.50;;;0.47;;
21825;SDS011;11075;47.944;11.776;2022-10-15T09:49:26;0.45;;;0.45;;
21825;SDS011;11075;47.944;11.776;2022-10-15T09:52:09;1.65;;;0.40;;
21825;SDS011;11075;47.944;11.776;2022-10-15T09:57:18;0.30;;;0.20;;
21825;SDS011;11075;47.944;11.776;2022-10-15T09:59:55;0.70;;;0.43;;
21825;SDS011;11075;47.944;11.776;2022-10-15T10:02:27;4.10;;;1.17;;
21825;SDS011;11075;47.944;11.776;2022-10-15T10:04:55;0.30;;;0.20;;
21825;SDS011;11075;47.944;11.776;2022-10-15T10:07:29;1.05;;;0.40;;
21825;SDS011;11075;47.944;11.776;2022-10-15T10:10:04;0.63;;;0.40;;
21825;SDS011;11075;47.944;11.776;2022-10-15T10:12:48;1.40;;;0.40;;
21825;SDS011;11075;47.944;11.776;2022-10-15T10:15:34;0.70;;;0.30;;
21825;SDS011;11075;47.944;11.776;2022-10-15T10:18:19;0.63;;;0.38;;
21825;SDS011;11075;47.944;11.776;2022-10-15T10:21:20;0.20;;;0.20;;
21825;SDS011;11075;47.944;11.776;2022-10-15T10:23:54;0.45;;;0.30;;
21825;SDS011;11075;47.944;11.776;2022-10-15T10:26:21;0.90;;;0.50;;
21825;SDS011;11075;47.944;11.776;2022-10-15T10:31:26;2.20;;;0.30;;
21825;SDS011;11075;47.944;11.776;2022-10-15T10:33:54;0.10;;;0.10;;
21825;SDS011;11075;47.944;11.776;2022-10-15T10:36:25;0.50;;;0.40;;
21825;SDS011;11075;47.944;11.776;2022-10-15T10:39:03;0.50;;;0.50;;
21825;SDS011;11075;47.944;11.776;2022-10-15T10:41:47;2.47;;;0.35;;
21825;SDS011;11075;47.944;11.776;2022-10-15T10:44:27;1.40;;;0.30;;
21825;SDS011;11075;47.944;11.776;2022-10-15T10:49:30;1.55;;;0.68;;
21825;SDS011;11075;47.944;11.776;2022-10-15T10:51:58;2.25;;;0.35;;
21825;SDS011;11075;47.944;11.776;2022-10-15T10:54:25;0.40;;;0.30;;
21825;SDS011;11075;47.944;11.776;2022-10-15T10:56:54;0.95;;;0.20;;
21825;SDS011;11075;47.944;11.776;2022-10-15T10:59:43;1.65;;;0.20;;
21825;SDS011;11075;47.944;11.776;2022-10-15T11:02:19;3.22;;;0.40;;
21825;SDS011;11075;47.944;11.776;2022-10-15T11:04:47;0.60;;;0.35;;
21825;SDS011;11075;47.944;11.776;2022-10-15T11:13:08;0.73;;;0.32;;
21825;SDS011;11075;47.944;11.776;2022-10-15T11:15:58;1.45;;;0.20;;
21825;SDS011;11075;47.944;11.776;2022-10-15T11:21:32;0.20;;;0.20;;
21825;SDS011;11075;47.944;11.776;2022-10-15T11:30:42;0.95;;;0.30;;
21825;SDS011;11075;47.944;11.776;2022-10-15T11:45:05;2.78;;;0.40;;
21825;SDS011;11075;47.944;11.776;2022-10-15T11:47:59;4.03;;;0.43;;
21825;SDS011;11075;47.944;11.776;2022-10-15T11:50:38;1.35;;;0.30;;
21825;SDS011;11075;47.944;11.776;2022-10-15T11:58:43;0.50;;;0.20;;
21825;SDS011;11075;47.944;11.776;2022-10-15T12:01:16;0.30;;;0.30;;
21825;SDS011;11075;47.944;11.776;2022-10-15T12:04:14;0.63;;;0.30;;
21825;SDS011;11075;47.944;11.776;2022-10-15T12:06:49;0.50;;;0.30;;
21825;SDS011;11075;47.944;11.776;2022-10-15T12:09:20;1.88;;;0.20;;
21825;SDS011;11075;47.944;11.776;2022-10-15T12:14:41;0.38;;;0.38;;
21825;SDS011;11075;47.944;11.776;2022-10-15T12:20:07;0.47;;;0.35;;
21825;SDS011;11075;47.944;11.776;2022-10-15T12:30:32;1.58;;;0.40;;
21825;SDS011;11075;47.944;11.776;2022-10-15T12:33:03;1.10;;;0.40;;
21825;SDS011;11075;47.944;11.776;2022-10-15T12:35:53;2.38;;;0.30;;
21825;SDS011;11075;47.944;11.776;2022-10-15T12:38:36;0.38;;;0.20;;
21825;SDS011;11075;47.944;11.776;2022-10-15T12:41:09;1.38;;;0.20;;
21825;SDS011;11075;47.944;11.776;2022-10-15T12:43:40;0.20;;;0.20;;
21825;SDS011;11075;47.944;11.776;2022-10-15T12:46:19;1.55;;;0.20;;
21825;SDS011;11075;47.944;11.776;2022-10-15T12:48:45;0.40;;;0.30;;
21825;SDS011;11075;47.944;11.776;2022-10-15T12:53:49;0.82;;;0.30;;
21825;SDS011;11075;47.944;11.776;2022-10-15T12:56:22;0.35;;;0.20;;
21825;SDS011;11075;47.944;11.776;2022-10-15T12:59:00;3.22;;;0.40;;
21825;SDS011;11075;47.944;11.776;2022-10-15T13:01:27;1.42;;;0.30;;
21825;SDS011;11075;47.944;11.776;2022-10-15T13:03:58;2.38;;;0.25;;
21825;SDS011;11075;47.944;11.776;2022-10-15T13:06:29;0.35;;;0.20;;
21825;SDS011;11075;47.944;11.776;2022-10-15T13:11:45;0.20;;;0.20;;
21825;SDS011;11075;47.944;11.776;2022-10-15T13:16:53;0.65;;;0.22;;
21825;SDS011;11075;47.944;11.776;2022-10-15T13:19:26;0.35;;;0.28;;
21825;SDS011;11075;47.944;11.776;2022-10-15T13:21:56;0.43;;;0.20;;
21825;SDS011;11075;47.944;11.776;2022-10-15T13:24:27;1.08;;;0.20;;
21825;SDS011;11075;47.944;11.776;2022-10-15T13:26:56;0.75;;;0.30;;
21825;SDS011;11075;47.944;11.776;2022-10-15T13:29:26;2.63;;;0.30;;
21825;SDS011;11075;47.944;11.776;2022-10-15T13:31:54;0.20;;;0.20;;
21825;SDS011;11075;47.944;11.776;2022-10-15T13:34:28;3.22;;;0.20;;
21825;SDS011;11075;47.944;11.776;2022-10-15T13:36:58;0.17;;;0.17;;
21825;SDS011;11075;47.944;11.776;2022-10-15T13:39:39;1.20;;;0.32;;
21825;SDS011;11075;47.944;11.776;2022-10-15T13:44:54;0.52;;;0.30;;
21825;SDS011;11075;47.944;11.776;2022-10-15T13:47:40;0.60;;;0.30;;
21825;SDS011;11075;47.944;11.776;2022-10-15T13:55:51;0.40;;;0.28;;
21825;SDS011;11075;47.944;11.776;2022-10-15T13:58:29;2.63;;;1.40;;
21825;SDS011;11075;47.944;11.776;2022-10-15T14:03:47;0.20;;;0.20;;
21825;SDS011;11075;47.944;11.776;2022-10-15T14:06:22;0.43;;;0.20;;
21825;SDS011;11075;47.944;11.776;2022-10-15T14:08:51;1.23;;;0.28;;
21825;SDS011;11075;47.944;11.776;2022-10-15T14:11:23;1.88;;;0.20;;
21825;SDS011;11075;47.944;11.776;2022-10-15T14:13:51;0.20;;;0.15;;
21825;SDS011;11075;47.944;11.776;2022-10-15T14:16:26;0.35;;;0.25;;
21825;SDS011;11075;47.944;11.776;2022-10-15T14:19:15;1.55;;;0.30;;
21825;SDS011;11075;47.944;11.776;2022-10-15T14:21:44;0.75;;;0.43;;
21825;SDS011;11075;47.944;11.776;2022-10-15T14:24:15;0.32;;;0.30;;
21825;SDS011;11075;47.944;11.776;2022-10-15T14:26:42;0.65;;;0.30;;
21825;SDS011;11075;47.944;11.776;2022-10-15T14:29:29;5.18;;;0.32;;
21825;SDS011;11075;47.944;11.776;2022-10-15T14:32:23;0.47;;;0.20;;
21825;SDS011;11075;47.944;11.776;2022-10-15T14:34:58;0.45;;;0.45;;
21825;SDS011;11075;47.944;11.776;2022-10-15T14:42:37;0.45;;;0.25;;
21825;SDS011;11075;47.944;11.776;2022-10-15T14:45:11;3.33;;;0.63;;
21825;SDS011;11075;47.944;11.776;2022-10-15T14:47:39;1.25;;;0.20;;
21825;SDS011;11075;47.944;11.776;2022-10-15T14:50:08;3.22;;;0.38;;
21825;SDS011;11075;47.944;11.776;2022-10-15T14:52:36;4.10;;;0.50;;
21825;SDS011;11075;47.944;11.776;2022-10-15T14:58:09;3.40;;;0.57;;
21825;SDS011;11075;47.944;11.776;2022-10-15T15:00:42;0.50;;;0.38;;
21825;SDS011;11075;47.944;11.776;2022-10-15T15:03:16;1.77;;;0.30;;
21825;SDS011;11075;47.944;11.776;2022-10-15T15:05:49;6.97;;;0.52;;
21825;SDS011;11075;47.944;11.776;2022-10-15T15:08:20;0.30;;;0.30;;
21825;SDS011;11075;47.944;11.776;2022-10-15T15:10:48;0.82;;;0.47;;
21825;SDS011;11075;47.944;11.776;2022-10-15T15:13:20;4.63;;;0.55;;
21825;SDS011;11075;47.944;11.776;2022-10-15T15:15:50;3.80;;;0.40;;
21825;SDS011;11075;47.944;11.776;2022-10-15T15:18:17;4.10;;;0.30;;
21825;SDS011;11075;47.944;11.776;2022-10-15T15:20:45;5.40;;;0.47;;
21825;SDS011;11075;47.944;11.776;2022-10-15T15:23:15;4.57;;;0.68;;
21825;SDS011;11075;47.944;11.776;2022-10-15T15:25:45;5.05;;;0.75;;
21825;SDS011;11075;47.944;11.776;2022-10-15T15:28:13;0.70;;;0.60;;
21825;SDS011;11075;47.944;11.776;2022-10-15T15:30:42;1.88;;;0.60;;
21825;SDS011;11075;47.944;11.776;2022-10-15T15:33:10;4.13;;;0.77;;
21825;SDS011;11075;47.944;11.776;2022-10-15T15:38:10;2.88;;;0.52;;
21825;SDS011;11075;47.944;11.776;2022-10-15T15:40:37;1.83;;;0.70;;
21825;SDS011;11075;47.944;11.776;2022-10-15T15:43:05;6.38;;;0.75;;
21825;SDS011;11075;47.944;11.776;2022-10-15T15:45:31;4.85;;;0.63;;
21825;SDS011;11075;47.944;11.776;2022-10-15T15:47:58;4.65;;;0.60;;
21825;SDS011;11075;47.944;11.776;2022-10-15T15:50:28;3.92;;;0.85;;
21825;SDS011;11075;47.944;11.776;2022-10-15T15:52:55;2.03;;;0.38;;
21825;SDS011;11075;47.944;11.776;2022-10-15T15:55:22;1.73;;;0.38;;
21825;SDS011;11075;47.944;11.776;2022-10-15T15:57:50;6.18;;;0.60;;
21825;SDS011;11075;47.944;11.776;2022-10-15T16:00:17;6.13;;;0.55;;
21825;SDS011;11075;47.944;11.776;2022-10-15T16:02:44;3.47;;;0.63;;
21825;SDS011;11075;47.944;11.776;2022-10-15T16:05:12;6.25;;;1.27;;
21825;SDS011;11075;47.944;11.776;2022-10-15T16:07:41;1.25;;;0.43;;
21825;SDS011;11075;47.944;11.776;2022-10-15T16:10:10;4.78;;;0.40;;
21825;SDS011;11075;47.944;11.776;2022-10-15T16:12:38;1.67;;;0.63;;
21825;SDS011;11075;47.944;11.776;2022-10-15T16:15:08;1.95;;;0.47;;
21825;SDS011;11075;47.944;11.776;2022-10-15T16:17:40;3.17;;;0.70;;
21825;SDS011;11075;47.944;11.776;2022-10-15T16:20:09;3.42;;;0.70;;
21825;SDS011;11075;47.944;11.776;2022-10-15T16:22:37;3.30;;;0.70;;
21825;SDS011;11075;47.944;11.776;2022-10-15T16:25:04;8.55;;;0.70;;
21825;SDS011;11075;47.944;11.776;2022-10-15T16:27:31;5.18;;;0.65;;
21825;SDS011;11075;47.944;11.776;2022-10-15T16:30:00;5.93;;;0.50;;
21825;SDS011;11075;47.944;11.776;2022-10-15T16:32:30;2.92;;;0.40;;
21825;SDS011;11075;47.944;11.776;2022-10-15T16:34:57;7.75;;;0.65;;
21825;SDS011;11075;47.944;11.776;2022-10-15T16:37:23;3.55;;;0.43;;
21825;SDS011;11075;47.944;11.776;2022-10-15T16:39:51;5.35;;;0.80;;
21825;SDS011;11075;47.944;11.776;2022-10-15T16:42:20;1.60;;;0.50;;
21825;SDS011;11075;47.944;11.776;2022-10-15T16:44:47;1.45;;;0.50;;
21825;SDS011;11075;47.944;11.776;2022-10-15T16:47:13;0.52;;;0.50;;
21825;SDS011;11075;47.944;11.776;2022-10-15T16:49:40;5.68;;;0.60;;
21825;SDS011;11075;47.944;11.776;2022-10-15T16:52:08;6.93;;;0.77;;
21825;SDS011;11075;47.944;11.776;2022-10-15T16:54:36;5.55;;;0.90;;
21825;SDS011;11075;47.944;11.776;2022-10-15T16:57:06;6.53;;;0.98;;
21825;SDS011;11075;47.944;11.776;2022-10-15T16:59:32;6.57;;;0.82;;
21825;SDS011;11075;47.944;11.776;2022-10-15T17:01:59;14.65;;;1.00;;
21825;SDS011;11075;47.944;11.776;2022-10-15T17:04:26;14.20;;;1.65;;
21825;SDS011;11075;47.944;11.776;2022-10-15T17:06:53;8.43;;;0.90;;